Time;durP1;ratioP1;P1;durP2;ratioP2;P2;SDS_P1;SDS_P2;PMS_P1;PMS_P2;Temp;Humidity;BMP_temperature;BMP_pressure;BME280_temperature;BME280_humidity;BME280_pressure;Samples;Min_cycle;Max_cycle;Signal;HPM_P1;HPM_P2
2023/04/08 00:01:33;;;;;;;7.90;4.88;;;;;;;;;;7393233;19;20070;-71
2023/04/08 00:03:58;;;;;;;8.50;4.65;;;;;;;;;;7392063;19;20011;-70
2023/04/08 00:06:25;;;;;;;10.55;5.40;;;;;;;;;;7394288;19;20002;-69
2023/04/08 00:08:51;;;;;;;8.23;4.90;;;;;;;;;;7391812;19;20400;-71
2023/04/08 00:11:16;;;;;;;9.43;5.15;;;;;;;;;;7390353;19;20006;-70
2023/04/08 00:13:41;;;;;;;10.25;5.15;;;;;;;;;;7391731;19;20002;-70
2023/04/08 00:16:07;;;;;;;10.73;5.40;;;;;;;;;;7391538;19;20017;-70
2023/04/08 00:18:32;;;;;;;10.52;4.97;;;;;;;;;;7394070;19;19990;-70
2023/04/08 00:20:57;;;;;;;8.00;4.63;;;;;;;;;;7391069;19;20010;-70
2023/04/08 00:23:23;;;;;;;9.35;4.85;;;;;;;;;;7390301;19;20012;-70
2023/04/08 00:25:48;;;;;;;8.45;4.75;;;;;;;;;;7390418;19;20010;-70
2023/04/08 00:28:13;;;;;;;8.23;4.88;;;;;;;;;;7391965;19;20576;-70
2023/04/08 00:30:39;;;;;;;9.48;5.28;;;;;;;;;;7391027;19;20015;-69
2023/04/08 00:33:04;;;;;;;9.75;5.38;;;;;;;;;;7389602;19;20009;-71
2023/04/08 00:35:29;;;;;;;11.50;5.88;;;;;;;;;;7391660;19;20058;-71
2023/04/08 00:37:54;;;;;;;12.23;5.97;;;;;;;;;;7389903;19;20062;-70
2023/04/08 00:40:20;;;;;;;11.20;5.80;;;;;;;;;;7390252;19;19994;-70
2023/04/08 00:42:45;;;;;;;12.45;5.97;;;;;;;;;;7386884;19;20078;-71
2023/04/08 00:45:13;;;;;;;11.23;6.10;;;;;;;;;;7390394;19;20037;-70
2023/04/08 00:47:38;;;;;;;12.10;6.38;;;;;;;;;;7390179;19;20005;-70
2023/04/08 00:50:07;;;;;;;12.35;7.13;;;;;;;;;;7390342;19;19999;-70
2023/04/08 00:52:33;;;;;;;14.82;6.40;;;;;;;;;;7388771;19;20392;-70
2023/04/08 00:54:58;;;;;;;15.23;7.00;;;;;;;;;;7389805;19;20023;-70
2023/04/08 00:57:23;;;;;;;13.57;6.70;;;;;;;;;;7389215;19;20027;-70
2023/04/08 00:59:49;;;;;;;17.00;8.25;;;;;;;;;;7389817;19;19998;-69
2023/04/08 01:02:37;;;;;;;15.55;8.32;;;;;;;;;;7387973;19;20023;-71
2023/04/08 01:05:05;;;;;;;17.10;7.88;;;;;;;;;;7390888;19;20031;-69
2023/04/08 01:07:34;;;;;;;16.63;8.35;;;;;;;;;;7390504;19;20050;-69
2023/04/08 01:10:17;;;;;;;16.35;8.75;;;;;;;;;;7390220;19;20602;-70
2023/04/08 01:12:55;;;;;;;15.38;7.60;;;;;;;;;;7385944;19;20007;-70
2023/04/08 01:15:22;;;;;;;14.63;7.50;;;;;;;;;;7390346;19;20030;-70
2023/04/08 01:17:51;;;;;;;14.93;8.38;;;;;;;;;;7389285;19;20010;-69
2023/04/08 01:20:18;;;;;;;15.07;8.10;;;;;;;;;;7389193;19;20457;-72
2023/04/08 01:23:11;;;;;;;15.25;8.13;;;;;;;;;;7386018;19;20468;-69
2023/04/08 01:25:38;;;;;;;17.92;8.70;;;;;;;;;;7394046;19;19994;-71
2023/04/08 01:28:06;;;;;;;15.43;8.20;;;;;;;;;;7388676;19;20010;-69
2023/04/08 01:30:33;;;;;;;13.77;7.35;;;;;;;;;;7391075;19;19998;-70
2023/04/08 01:33:01;;;;;;;14.57;7.53;;;;;;;;;;7387019;19;20301;-69
2023/04/08 01:35:27;;;;;;;17.20;8.68;;;;;;;;;;7386968;19;20013;-72
2023/04/08 01:37:54;;;;;;;16.70;8.45;;;;;;;;;;7388130;19;20417;-70
2023/04/08 01:40:19;;;;;;;16.20;8.40;;;;;;;;;;7388259;19;20299;-70
2023/04/08 01:42:47;;;;;;;15.68;8.30;;;;;;;;;;7387092;19;20031;-70
2023/04/08 01:45:15;;;;;;;15.60;7.97;;;;;;;;;;7389038;19;19998;-71
2023/04/08 01:47:42;;;;;;;17.02;8.70;;;;;;;;;;7388717;19;20007;-70
2023/04/08 01:50:08;;;;;;;15.45;8.70;;;;;;;;;;7388127;19;20028;-69
2023/04/08 01:52:36;;;;;;;14.82;7.88;;;;;;;;;;7387082;19;20013;-70
2023/04/08 01:55:01;;;;;;;14.23;7.95;;;;;;;;;;7388810;19;20490;-70
2023/04/08 01:57:32;;;;;;;15.25;8.20;;;;;;;;;;7390706;19;20003;-69
2023/04/08 02:00:01;;;;;;;17.10;8.55;;;;;;;;;;7388377;19;20010;-70
2023/04/08 02:02:27;;;;;;;15.63;8.13;;;;;;;;;;7386799;19;20040;-70
2023/04/08 02:04:55;;;;;;;18.58;8.75;;;;;;;;;;7388582;19;20007;-70
2023/04/08 02:07:20;;;;;;;16.30;8.40;;;;;;;;;;7387763;19;19999;-71
2023/04/08 02:09:45;;;;;;;14.32;7.70;;;;;;;;;;7388063;19;20002;-70
2023/04/08 02:12:11;;;;;;;16.08;8.00;;;;;;;;;;7388640;19;19999;-70
2023/04/08 02:14:36;;;;;;;17.67;7.82;;;;;;;;;;7387977;19;20022;-70
2023/04/08 02:17:11;;;;;;;15.00;7.78;;;;;;;;;;7391410;19;19998;-70
2023/04/08 02:19:52;;;;;;;15.20;7.40;;;;;;;;;;7387925;19;20651;-70
2023/04/08 02:22:48;;;;;;;15.80;7.78;;;;;;;;;;7386118;19;20010;-70
2023/04/08 02:25:16;;;;;;;12.80;7.18;;;;;;;;;;7394945;19;20005;-70
2023/04/08 02:27:43;;;;;;;18.40;7.50;;;;;;;;;;7395178;19;20003;-70
2023/04/08 02:30:10;;;;;;;15.45;8.30;;;;;;;;;;7394395;19;20028;-71
2023/04/08 02:32:36;;;;;;;12.38;6.70;;;;;;;;;;7392715;19;20002;-69
2023/04/08 02:35:03;;;;;;;14.52;7.45;;;;;;;;;;7394733;19;20051;-71
2023/04/08 02:37:29;;;;;;;14.98;7.80;;;;;;;;;;7394460;19;20008;-70
2023/04/08 02:39:55;;;;;;;14.55;7.55;;;;;;;;;;7394538;19;20409;-71
2023/04/08 02:42:20;;;;;;;13.00;7.18;;;;;;;;;;7392278;19;20013;-71
2023/04/08 02:44:46;;;;;;;15.15;7.95;;;;;;;;;;7394945;19;20003;-72
2023/04/08 02:47:11;;;;;;;12.60;7.13;;;;;;;;;;7394483;19;20477;-69
2023/04/08 02:49:36;;;;;;;14.07;6.78;;;;;;;;;;7394384;19;19998;-70
2023/04/08 02:52:02;;;;;;;13.57;7.18;;;;;;;;;;7392310;19;19999;-70
2023/04/08 02:54:27;;;;;;;13.90;7.22;;;;;;;;;;7393960;19;20037;-70
2023/04/08 02:56:52;;;;;;;13.38;7.07;;;;;;;;;;7393662;19;20003;-69
2023/04/08 02:59:18;;;;;;;12.95;7.28;;;;;;;;;;7393758;19;20103;-70
2023/04/08 03:01:43;;;;;;;14.23;7.38;;;;;;;;;;7392312;19;20011;-69
2023/04/08 03:04:08;;;;;;;14.70;7.10;;;;;;;;;;7393461;19;20066;-70
2023/04/08 03:06:34;;;;;;;14.98;7.38;;;;;;;;;;7391811;19;20019;-70
2023/04/08 03:08:59;;;;;;;13.20;7.40;;;;;;;;;;7393591;19;20046;-71
2023/04/08 03:11:25;;;;;;;15.90;7.22;;;;;;;;;;7391860;19;19999;-71
2023/04/08 03:13:50;;;;;;;13.07;7.15;;;;;;;;;;7393101;19;20006;-69
2023/04/08 03:16:15;;;;;;;13.05;6.78;;;;;;;;;;7392999;19;20009;-69
2023/04/08 03:18:41;;;;;;;16.15;7.53;;;;;;;;;;7388889;19;20006;-71
2023/04/08 03:21:06;;;;;;;15.35;7.97;;;;;;;;;;7391812;19;20007;-71
2023/04/08 03:23:31;;;;;;;16.27;7.43;;;;;;;;;;7395147;19;19998;-70
2023/04/08 03:25:57;;;;;;;13.80;7.15;;;;;;;;;;7392696;19;19995;-70
2023/04/08 03:28:22;;;;;;;13.43;7.18;;;;;;;;;;7392635;19;20531;-69
2023/04/08 03:30:48;;;;;;;18.88;7.75;;;;;;;;;;7392005;19;20006;-70
2023/04/08 03:33:13;;;;;;;14.80;7.32;;;;;;;;;;7394082;19;20007;-71
2023/04/08 03:35:38;;;;;;;15.20;7.63;;;;;;;;;;7390674;19;20011;-70
2023/04/08 03:38:04;;;;;;;16.27;8.25;;;;;;;;;;7390739;19;20456;-69
2023/04/08 03:40:29;;;;;;;18.52;8.25;;;;;;;;;;7391448;19;19999;-69
2023/04/08 03:42:54;;;;;;;16.27;7.93;;;;;;;;;;7389940;19;19999;-70
2023/04/08 03:45:20;;;;;;;15.77;7.53;;;;;;;;;;7390530;19;19994;-71
2023/04/08 03:47:45;;;;;;;16.60;8.27;;;;;;;;;;7391968;19;20001;-70
2023/04/08 03:50:11;;;;;;;14.65;8.07;;;;;;;;;;7391119;19;20009;-70
2023/04/08 03:52:36;;;;;;;17.58;7.93;;;;;;;;;;7392100;19;20045;-71
2023/04/08 03:55:01;;;;;;;15.43;8.23;;;;;;;;;;7391547;19;19994;-70
2023/04/08 03:57:26;;;;;;;15.40;7.35;;;;;;;;;;7390827;19;20015;-70
2023/04/08 03:59:52;;;;;;;16.38;7.88;;;;;;;;;;7389683;19;20002;-70
2023/04/08 04:02:17;;;;;;;15.10;8.30;;;;;;;;;;7389343;19;20010;-77
2023/04/08 04:04:43;;;;;;;14.90;7.68;;;;;;;;;;7391690;19;20061;-77
2023/04/08 04:07:08;;;;;;;16.55;7.93;;;;;;;;;;7391611;19;20451;-77
2023/04/08 04:09:33;;;;;;;18.92;9.13;;;;;;;;;;7394435;19;20058;-77
2023/04/08 04:11:59;;;;;;;14.00;8.30;;;;;;;;;;7387852;19;20070;-77
2023/04/08 04:14:24;;;;;;;16.38;8.35;;;;;;;;;;7389458;19;20015;-77
2023/04/08 04:16:50;;;;;;;17.23;7.97;;;;;;;;;;7390971;19;20029;-77
2023/04/08 04:19:17;;;;;;;16.75;8.90;;;;;;;;;;7389799;19;20045;-77
2023/04/08 04:21:42;;;;;;;17.35;8.90;;;;;;;;;;7390372;19;20002;-77
2023/04/08 04:24:08;;;;;;;18.98;9.15;;;;;;;;;;7391122;19;20066;-77
2023/04/08 04:26:33;;;;;;;19.73;8.57;;;;;;;;;;7389647;19;20439;-77
2023/04/08 04:28:58;;;;;;;19.27;8.55;;;;;;;;;;7392238;19;20003;-77
2023/04/08 04:31:26;;;;;;;17.73;8.88;;;;;;;;;;7391737;19;20003;-77
2023/04/08 04:33:52;;;;;;;15.82;8.02;;;;;;;;;;7391071;19;20002;-77
2023/04/08 04:36:18;;;;;;;12.85;7.75;;;;;;;;;;7389388;19;20090;-77
2023/04/08 04:38:44;;;;;;;17.27;7.93;;;;;;;;;;7389022;19;20480;-77
2023/04/08 04:41:09;;;;;;;14.02;7.82;;;;;;;;;;7389907;19;20363;-77
2023/04/08 04:43:35;;;;;;;13.93;7.80;;;;;;;;;;7388455;19;20003;-77
2023/04/08 04:46:02;;;;;;;19.58;7.25;;;;;;;;;;7389207;19;20058;-77
2023/04/08 04:48:28;;;;;;;14.43;7.60;;;;;;;;;;7388954;19;20019;-77
2023/04/08 04:50:58;;;;;;;16.40;8.15;;;;;;;;;;7389907;19;19999;-77
2023/04/08 04:53:23;;;;;;;18.23;8.95;;;;;;;;;;7388515;19;20143;-77
2023/04/08 04:55:49;;;;;;;19.92;9.05;;;;;;;;;;7390920;19;19999;-77
2023/04/08 04:58:15;;;;;;;18.42;9.45;;;;;;;;;;7387982;19;19998;-77
2023/04/08 05:00:40;;;;;;;21.73;10.00;;;;;;;;;;7390278;19;20038;-78
2023/04/08 05:03:06;;;;;;;37.92;9.73;;;;;;;;;;7389567;19;20482;-78
2023/04/08 05:05:31;;;;;;;21.45;9.82;;;;;;;;;;7390659;19;20005;-77
2023/04/08 05:07:56;;;;;;;23.48;10.18;;;;;;;;;;7389330;19;20014;-77
2023/04/08 05:10:21;;;;;;;22.15;10.23;;;;;;;;;;7388823;19;19999;-77
2023/04/08 05:12:47;;;;;;;20.25;10.02;;;;;;;;;;7389946;19;20009;-78
2023/04/08 05:15:12;;;;;;;19.92;9.98;;;;;;;;;;7388564;19;20342;-77
2023/04/08 05:17:38;;;;;;;23.35;11.32;;;;;;;;;;7389902;19;19999;-77
2023/04/08 05:20:04;;;;;;;21.05;10.45;;;;;;;;;;7388237;19;20003;-77
2023/04/08 05:22:29;;;;;;;19.17;10.18;;;;;;;;;;7391646;19;20023;-78
2023/04/08 05:24:54;;;;;;;20.70;10.60;;;;;;;;;;7389926;19;19998;-77
2023/04/08 05:27:20;;;;;;;22.65;10.88;;;;;;;;;;7392415;19;19995;-77
2023/04/08 05:29:46;;;;;;;22.05;11.32;;;;;;;;;;7390120;19;20006;-77
2023/04/08 05:32:11;;;;;;;23.17;10.65;;;;;;;;;;7388882;19;20556;-78
2023/04/08 05:34:36;;;;;;;22.67;10.48;;;;;;;;;;7389755;19;19998;-78
2023/04/08 05:37:02;;;;;;;20.70;10.63;;;;;;;;;;7389295;19;20410;-78
2023/04/08 05:39:27;;;;;;;19.73;10.35;;;;;;;;;;7392042;19;20007;-77
2023/04/08 05:41:52;;;;;;;18.35;10.27;;;;;;;;;;7395059;19;20011;-77
2023/04/08 05:44:18;;;;;;;22.95;10.10;;;;;;;;;;7390936;19;20002;-79
2023/04/08 05:46:43;;;;;;;18.75;10.75;;;;;;;;;;7390868;19;19994;-77
2023/04/08 05:49:08;;;;;;;19.67;10.25;;;;;;;;;;7388824;19;19998;-77
2023/04/08 05:51:34;;;;;;;14.77;8.80;;;;;;;;;;7387962;19;20370;-77
2023/04/08 05:53:59;;;;;;;17.42;8.85;;;;;;;;;;7388531;19;20002;-78
2023/04/08 05:56:24;;;;;;;14.65;8.68;;;;;;;;;;7390396;19;19991;-77
2023/04/08 05:58:50;;;;;;;15.02;8.80;;;;;;;;;;7389170;19;20005;-76
2023/04/08 06:01:15;;;;;;;14.13;8.60;;;;;;;;;;7391204;19;20036;-76
2023/04/08 06:03:40;;;;;;;14.15;8.60;;;;;;;;;;7391479;19;20456;-77
2023/04/08 06:06:12;;;;;;;13.25;7.95;;;;;;;;;;7392455;19;20443;-77
2023/04/08 06:08:44;;;;;;;14.30;8.20;;;;;;;;;;7391969;19;20008;-78
2023/04/08 06:11:09;;;;;;;;;;;;;;;;;;7391889;19;20472;-76
2023/04/08 06:13:37;;;;;;;23.85;10.40;;;;;;;;;;7388014;19;19974;-76
2023/04/08 06:16:10;;;;;;;12.25;7.53;;;;;;;;;;7392008;19;20289;-76
2023/04/08 06:18:35;;;;;;;13.68;8.45;;;;;;;;;;7386147;19;20009;-76
2023/04/08 06:21:00;;;;;;;15.93;7.90;;;;;;;;;;7388546;19;19991;-76
2023/04/08 06:23:26;;;;;;;14.75;7.97;;;;;;;;;;7385290;19;20014;-76
2023/04/08 06:25:52;;;;;;;13.95;8.32;;;;;;;;;;7389574;19;20005;-76
2023/04/08 06:28:18;;;;;;;20.67;7.72;;;;;;;;;;7390933;19;20002;-76
2023/04/08 06:30:43;;;;;;;19.10;8.65;;;;;;;;;;7389241;19;20003;-76
2023/04/08 06:33:09;;;;;;;18.77;8.30;;;;;;;;;;7387111;19;20002;-78
2023/04/08 06:35:36;;;;;;;17.25;8.63;;;;;;;;;;7390728;19;20007;-76
2023/04/08 06:38:01;;;;;;;13.07;7.97;;;;;;;;;;7388709;19;20091;-76
2023/04/08 06:40:26;;;;;;;18.77;8.93;;;;;;;;;;7389245;19;20007;-77
2023/04/08 06:42:52;;;;;;;18.80;8.80;;;;;;;;;;7387619;19;20002;-77
2023/04/08 06:45:18;;;;;;;26.92;10.48;;;;;;;;;;7381398;19;20472;-77
2023/04/08 06:47:43;;;;;;;17.88;10.52;;;;;;;;;;7386852;19;20023;-78
2023/04/08 06:50:09;;;;;;;15.52;8.95;;;;;;;;;;7384086;19;19999;-77
2023/04/08 06:52:34;;;;;;;19.85;9.18;;;;;;;;;;7383510;19;20070;-77
2023/04/08 06:55:00;;;;;;;19.60;10.18;;;;;;;;;;7386076;19;20548;-77
2023/04/08 06:57:25;;;;;;;18.30;10.18;;;;;;;;;;7383225;19;20007;-76
2023/04/08 06:59:52;;;;;;;14.60;8.50;;;;;;;;;;7384816;19;20071;-75
2023/04/08 07:02:17;;;;;;;14.02;8.77;;;;;;;;;;7381333;19;20003;-77
2023/04/08 07:04:43;;;;;;;14.25;8.45;;;;;;;;;;7385597;19;20023;-79
2023/04/08 07:07:08;;;;;;;13.63;8.77;;;;;;;;;;7383307;19;19998;-77
2023/04/08 07:09:35;;;;;;;15.95;9.30;;;;;;;;;;7387747;19;20488;-78
2023/04/08 07:12:02;;;;;;;17.10;8.98;;;;;;;;;;7387635;19;20002;-77
2023/04/08 07:14:28;;;;;;;15.50;8.77;;;;;;;;;;7392960;19;20006;-77
2023/04/08 07:16:54;;;;;;;14.40;8.93;;;;;;;;;;7391920;19;20039;-78
2023/04/08 07:19:19;;;;;;;15.52;10.05;;;;;;;;;;7391142;19;19995;-77
2023/04/08 07:21:45;;;;;;;13.90;8.75;;;;;;;;;;7393055;19;20015;-78
2023/04/08 07:24:10;;;;;;;15.75;8.75;;;;;;;;;;7392529;19;19995;-77
2023/04/08 07:26:37;;;;;;;13.95;8.38;;;;;;;;;;7394266;19;20022;-76
2023/04/08 07:29:02;;;;;;;17.88;10.27;;;;;;;;;;7395756;19;19998;-76
2023/04/08 07:31:27;;;;;;;17.05;9.75;;;;;;;;;;7392814;19;19998;-77
2023/04/08 07:33:53;;;;;;;17.88;10.02;;;;;;;;;;7393901;19;20471;-78
2023/04/08 07:36:18;;;;;;;16.05;9.70;;;;;;;;;;7394015;19;20022;-78
2023/04/08 07:38:43;;;;;;;18.75;9.95;;;;;;;;;;7390436;19;20119;-75
2023/04/08 07:41:09;;;;;;;15.23;9.27;;;;;;;;;;7392873;19;20019;-75
2023/04/08 07:43:35;;;;;;;16.13;9.68;;;;;;;;;;7391096;19;19999;-74
2023/04/08 07:46:02;;;;;;;16.27;9.43;;;;;;;;;;7394837;19;20004;-75
2023/04/08 07:48:28;;;;;;;14.60;8.70;;;;;;;;;;7388264;19;20007;-76
2023/04/08 07:50:53;;;;;;;16.60;9.75;;;;;;;;;;7393177;19;20369;-76
2023/04/08 07:53:18;;;;;;;13.95;9.50;;;;;;;;;;7388965;19;20001;-76
2023/04/08 07:55:44;;;;;;;16.30;8.75;;;;;;;;;;7397217;19;20058;-74
2023/04/08 07:58:09;;;;;;;14.80;8.80;;;;;;;;;;7396790;19;19995;-74
2023/04/08 08:00:35;;;;;;;12.50;6.43;;;;;;;;;;7394878;19;20059;-75
2023/04/08 08:03:00;;;;;;;16.17;8.75;;;;;;;;;;7393735;19;20538;-75
2023/04/08 08:05:25;;;;;;;13.93;8.18;;;;;;;;;;7383868;19;20452;-74
2023/04/08 08:07:51;;;;;;;15.68;9.10;;;;;;;;;;7388418;19;20492;-73
2023/04/08 08:10:16;;;;;;;11.75;7.25;;;;;;;;;;7386328;19;20018;-75
2023/04/08 08:12:41;;;;;;;14.02;8.52;;;;;;;;;;7390438;19;19995;-74
2023/04/08 08:15:07;;;;;;;15.23;10.00;;;;;;;;;;7387818;19;19998;-75
2023/04/08 08:17:33;;;;;;;15.50;9.32;;;;;;;;;;7389419;19;19999;-75
2023/04/08 08:19:59;;;;;;;17.13;9.38;;;;;;;;;;7387454;19;20472;-76
2023/04/08 08:22:25;;;;;;;15.07;9.23;;;;;;;;;;7388419;19;20006;-76
2023/04/08 08:24:56;;;;;;;17.50;10.88;;;;;;;;;;7391666;19;20009;-75
2023/04/08 08:27:22;;;;;;;16.80;10.05;;;;;;;;;;7389243;19;20003;-75
2023/04/08 08:29:47;;;;;;;15.25;9.48;;;;;;;;;;7390304;19;20015;-74
2023/04/08 08:32:12;;;;;;;18.23;10.68;;;;;;;;;;7386978;19;20070;-75
2023/04/08 08:34:38;;;;;;;14.95;9.38;;;;;;;;;;7391673;19;20003;-74
2023/04/08 08:37:03;;;;;;;18.13;11.00;;;;;;;;;;7387667;19;20522;-74
2023/04/08 08:39:29;;;;;;;18.83;10.93;;;;;;;;;;7388003;19;20468;-75
2023/04/08 08:41:55;;;;;;;16.73;10.45;;;;;;;;;;7387609;19;20010;-74
2023/04/08 08:44:21;;;;;;;14.88;8.27;;;;;;;;;;7390020;19;20035;-76
2023/04/08 08:46:47;;;;;;;17.25;10.57;;;;;;;;;;7390804;19;20006;-75
2023/04/08 08:49:12;;;;;;;17.35;10.00;;;;;;;;;;7387387;19;20059;-75
2023/04/08 08:51:39;;;;;;;12.77;8.32;;;;;;;;;;7388204;19;20048;-75
2023/04/08 08:54:04;;;;;;;15.95;8.90;;;;;;;;;;7388632;19;20015;-75
2023/04/08 08:56:32;;;;;;;16.98;9.70;;;;;;;;;;7388676;19;20491;-78
2023/04/08 08:58:58;;;;;;;16.38;10.20;;;;;;;;;;7388398;19;20104;-75
2023/04/08 09:01:43;;;;;;;18.67;10.85;;;;;;;;;;7389984;19;20360;-75
2023/04/08 09:04:10;;;;;;;15.57;10.05;;;;;;;;;;7389193;19;20017;-76
2023/04/08 09:06:36;;;;;;;17.77;9.70;;;;;;;;;;7389323;19;20770;-74
2023/04/08 09:09:04;;;;;;;16.98;8.73;;;;;;;;;;7388560;19;20006;-74
2023/04/08 09:11:30;;;;;;;17.27;10.05;;;;;;;;;;7387608;19;20547;-77
2023/04/08 09:13:56;;;;;;;18.77;10.82;;;;;;;;;;7389432;19;20007;-76
2023/04/08 09:16:22;;;;;;;17.92;10.57;;;;;;;;;;7391229;19;20007;-76
2023/04/08 09:18:48;;;;;;;15.43;8.80;;;;;;;;;;7387795;19;20464;-76
2023/04/08 09:21:15;;;;;;;16.35;9.43;;;;;;;;;;7387070;19;20024;-75
2023/04/08 09:23:43;;;;;;;14.38;9.82;;;;;;;;;;7388479;19;20010;-75
2023/04/08 09:26:21;;;;;;;15.68;9.00;;;;;;;;;;7392743;19;20461;-75
2023/04/08 09:29:16;;;;;;;13.90;8.20;;;;;;;;;;7386400;19;20082;-75
2023/04/08 09:31:41;;;;;;;16.52;9.20;;;;;;;;;;7385701;19;20391;-74
2023/04/08 09:34:15;;;;;;;13.27;7.85;;;;;;;;;;7383027;19;20019;-72
2023/04/08 09:36:41;;;;;;;18.10;10.85;;;;;;;;;;7390750;19;20003;-74
2023/04/08 09:39:06;;;;;;;12.55;8.35;;;;;;;;;;7384781;19;20505;-74
2023/04/08 09:41:37;;;;;;;16.98;8.73;;;;;;;;;;7388614;19;20041;-74
2023/04/08 09:44:07;;;;;;;18.98;8.82;;;;;;;;;;7383746;19;20014;-74
2023/04/08 09:46:40;;;;;;;16.13;9.37;;;;;;;;;;7389955;19;20006;-74
2023/04/08 09:49:28;;;;;;;15.18;9.48;;;;;;;;;;7386275;19;20084;-74
2023/04/08 09:52:10;;;;;;;20.40;10.05;;;;;;;;;;7387198;19;20341;-74
2023/04/08 09:54:54;;;;;;;16.48;9.93;;;;;;;;;;7388395;19;20007;-74
2023/04/08 09:57:42;;;;;;;18.15;10.15;;;;;;;;;;7385648;19;20440;-74
2023/04/08 10:00:16;;;;;;;17.70;10.77;;;;;;;;;;7384035;19;20006;-74
2023/04/08 10:03:15;;;;;;;23.20;11.23;;;;;;;;;;7386334;19;19998;-74
2023/04/08 10:05:42;;;;;;;17.45;10.00;;;;;;;;;;7388755;19;20027;-73
2023/04/08 10:08:09;;;;;;;18.40;10.35;;;;;;;;;;7386669;19;19999;-74
2023/04/08 10:10:37;;;;;;;22.42;10.10;;;;;;;;;;7385631;19;20022;-75
2023/04/08 10:13:03;;;;;;;19.02;9.95;;;;;;;;;;7384444;19;20018;-74
2023/04/08 10:15:36;;;;;;;15.43;8.30;;;;;;;;;;7385885;19;20479;-74
2023/04/08 10:18:01;;;;;;;16.23;9.43;;;;;;;;;;7385532;19;20036;-76
2023/04/08 10:20:33;;;;;;;16.10;8.75;;;;;;;;;;7384858;19;20010;-71
2023/04/08 10:22:58;;;;;;;13.30;8.75;;;;;;;;;;7386391;19;20078;-76
2023/04/08 10:25:34;;;;;;;15.20;8.65;;;;;;;;;;7385525;19;20027;-76
2023/04/08 10:28:12;;;;;;;14.55;9.15;;;;;;;;;;7393692;19;20023;-76
2023/04/08 10:30:54;;;;;;;13.02;8.45;;;;;;;;;;7387841;19;20036;-73
2023/04/08 10:33:35;;;;;;;16.98;9.65;;;;;;;;;;7387357;19;20044;-77
2023/04/08 10:36:09;;;;;;;18.05;9.68;;;;;;;;;;7388979;19;20026;-74
2023/04/08 10:38:34;;;;;;;15.40;8.25;;;;;;;;;;7386696;19;20092;-74
2023/04/08 10:41:01;;;;;;;12.57;8.68;;;;;;;;;;7385330;19;20007;-73
2023/04/08 10:43:31;;;;;;;12.10;8.00;;;;;;;;;;7392896;19;20002;-74
2023/04/08 10:45:57;;;;;;;14.27;7.93;;;;;;;;;;7398700;19;20010;-74
2023/04/08 10:48:23;;;;;;;12.32;6.82;;;;;;;;;;7396123;19;20002;-74
2023/04/08 10:51:03;;;;;;;11.40;7.28;;;;;;;;;;7392924;19;20021;-74
2023/04/08 10:53:43;;;;;;;11.25;6.30;;;;;;;;;;7391287;19;20058;-74
2023/04/08 10:56:17;;;;;;;12.27;7.30;;;;;;;;;;7392784;19;20082;-74
2023/04/08 10:58:55;;;;;;;9.57;6.50;;;;;;;;;;7390903;19;20006;-74
2023/04/08 11:01:21;;;;;;;11.50;6.55;;;;;;;;;;7393192;19;19998;-74
2023/04/08 11:03:48;;;;;;;12.10;7.00;;;;;;;;;;7390916;19;20362;-74
2023/04/08 11:06:13;;;;;;;11.25;6.05;;;;;;;;;;7391603;19;20526;-74
2023/04/08 11:08:39;;;;;;;9.65;6.20;;;;;;;;;;7392866;19;20007;-74
2023/04/08 11:11:09;;;;;;;10.35;6.22;;;;;;;;;;7390891;19;20003;-73
2023/04/08 11:13:36;;;;;;;11.20;6.00;;;;;;;;;;7390116;19;20078;-73
2023/04/08 11:16:03;;;;;;;12.43;5.85;;;;;;;;;;7393078;19;20002;-74
2023/04/08 11:18:30;;;;;;;11.55;6.45;;;;;;;;;;7387675;19;20362;-74
2023/04/08 11:20:56;;;;;;;10.80;5.38;;;;;;;;;;7393013;19;20003;-74
2023/04/08 11:23:24;;;;;;;10.35;4.78;;;;;;;;;;7388221;19;20037;-73
2023/04/08 11:25:49;;;;;;;12.43;5.97;;;;;;;;;;7393635;19;20019;-74
2023/04/08 11:28:17;;;;;;;12.75;6.25;;;;;;;;;;7391271;19;20475;-73
2023/04/08 11:30:42;;;;;;;9.95;5.93;;;;;;;;;;7392646;19;20476;-74
2023/04/08 11:33:08;;;;;;;11.23;6.20;;;;;;;;;;7389679;19;20020;-73
2023/04/08 11:35:34;;;;;;;11.80;6.25;;;;;;;;;;7393527;19;20389;-73
2023/04/08 11:38:03;;;;;;;10.40;5.60;;;;;;;;;;7389355;19;20011;-72
2023/04/08 11:40:28;;;;;;;11.73;6.18;;;;;;;;;;7390816;19;20007;-74
2023/04/08 11:42:54;;;;;;;11.90;6.35;;;;;;;;;;7391301;19;20029;-74
2023/04/08 11:45:20;;;;;;;9.27;4.93;;;;;;;;;;7390644;19;20011;-72
2023/04/08 11:47:47;;;;;;;12.10;6.65;;;;;;;;;;7392085;19;20010;-73
2023/04/08 11:50:21;;;;;;;9.60;6.22;;;;;;;;;;7389450;19;20009;-73
2023/04/08 11:52:48;;;;;;;11.70;5.47;;;;;;;;;;7392245;19;20091;-75
2023/04/08 11:55:25;;;;;;;9.27;5.88;;;;;;;;;;7389737;19;20006;-73
2023/04/08 11:57:52;;;;;;;11.35;5.80;;;;;;;;;;7391074;19;20006;-75
2023/04/08 12:00:18;;;;;;;9.25;5.63;;;;;;;;;;7387704;19;20014;-75
2023/04/08 12:02:45;;;;;;;8.77;5.63;;;;;;;;;;7393381;19;20464;-82
2023/04/08 12:05:14;;;;;;;9.70;5.82;;;;;;;;;;7387536;19;20576;-72
2023/04/08 12:07:40;;;;;;;11.45;5.25;;;;;;;;;;7391788;19;20030;-80
2023/04/08 12:10:06;;;;;;;10.18;5.60;;;;;;;;;;7389444;19;20002;-72
2023/04/08 12:12:31;;;;;;;8.60;5.43;;;;;;;;;;7391131;19;20532;-74
2023/04/08 12:14:57;;;;;;;9.85;5.47;;;;;;;;;;7393882;19;20010;-76
2023/04/08 12:17:22;;;;;;;9.13;5.68;;;;;;;;;;7389444;19;20006;-79
2023/04/08 12:19:47;;;;;;;9.35;5.85;;;;;;;;;;7391911;19;20002;-79
2023/04/08 12:22:13;;;;;;;10.65;5.82;;;;;;;;;;7392885;19;20018;-76
2023/04/08 12:24:38;;;;;;;9.80;5.82;;;;;;;;;;7393126;19;20007;-77
2023/04/08 12:27:04;;;;;;;8.05;5.63;;;;;;;;;;7395509;19;20022;-75
2023/04/08 12:29:29;;;;;;;8.32;5.63;;;;;;;;;;7394694;19;20023;-79
2023/04/08 12:31:55;;;;;;;11.77;5.70;;;;;;;;;;7391158;19;20002;-79
2023/04/08 12:34:21;;;;;;;7.72;4.07;;;;;;;;;;7393989;19;20002;-78
2023/04/08 12:36:47;;;;;;;10.73;5.32;;;;;;;;;;7387898;19;20003;-78
2023/04/08 12:39:13;;;;;;;10.30;5.72;;;;;;;;;;7383217;19;20477;-78
2023/04/08 12:41:38;;;;;;;7.90;4.13;;;;;;;;;;7385364;19;20034;-77
2023/04/08 12:44:04;;;;;;;8.52;5.00;;;;;;;;;;7387144;19;20002;-78
2023/04/08 12:46:29;;;;;;;9.43;5.18;;;;;;;;;;7387245;19;20003;-78
2023/04/08 12:48:54;;;;;;;10.40;5.53;;;;;;;;;;7387358;19;20019;-78
2023/04/08 12:51:20;;;;;;;8.68;4.93;;;;;;;;;;7387432;19;20002;-78
2023/04/08 12:53:45;;;;;;;10.68;5.07;;;;;;;;;;7390583;19;20010;-78
2023/04/08 12:56:10;;;;;;;9.38;5.45;;;;;;;;;;7390670;19;20011;-79
2023/04/08 12:58:36;;;;;;;9.25;5.22;;;;;;;;;;7389966;19;20202;-79
2023/04/08 13:01:01;;;;;;;9.00;4.80;;;;;;;;;;7385522;19;20741;-75
2023/04/08 13:03:29;;;;;;;9.02;4.63;;;;;;;;;;7383577;19;20496;-82
2023/04/08 13:05:55;;;;;;;8.40;4.50;;;;;;;;;;7389113;19;20006;-76
2023/04/08 13:08:20;;;;;;;9.00;4.38;;;;;;;;;;7383290;19;20029;-77
2023/04/08 13:10:46;;;;;;;9.85;4.68;;;;;;;;;;7387762;19;20003;-77
2023/04/08 13:13:13;;;;;;;16.35;4.93;;;;;;;;;;7383645;19;20006;-80
2023/04/08 13:15:38;;;;;;;9.85;4.75;;;;;;;;;;7388306;19;19995;-76
2023/04/08 13:18:03;;;;;;;9.27;4.15;;;;;;;;;;7386340;19;20002;-78
2023/04/08 13:20:29;;;;;;;10.48;4.88;;;;;;;;;;7389994;19;20520;-77
2023/04/08 13:22:54;;;;;;;7.50;4.43;;;;;;;;;;7386687;19;20069;-77
2023/04/08 13:25:20;;;;;;;8.40;4.53;;;;;;;;;;7387779;19;20077;-76
2023/04/08 13:27:45;;;;;;;11.65;4.55;;;;;;;;;;7386718;19;20535;-79
2023/04/08 13:30:11;;;;;;;9.30;4.68;;;;;;;;;;7385352;19;20066;-70
2023/04/08 13:32:36;;;;;;;8.15;4.50;;;;;;;;;;7382797;19;19999;-73
2023/04/08 13:35:02;;;;;;;8.60;4.45;;;;;;;;;;7385314;19;20582;-72
2023/04/08 13:37:27;;;;;;;6.85;3.88;;;;;;;;;;7386035;19;20439;-72
2023/04/08 13:39:53;;;;;;;9.32;4.43;;;;;;;;;;7385088;19;20006;-73
2023/04/08 13:42:18;;;;;;;7.80;3.80;;;;;;;;;;7383744;19;20006;-72
2023/04/08 13:44:44;;;;;;;9.77;4.07;;;;;;;;;;7384127;19;20006;-72
2023/04/08 13:47:09;;;;;;;7.88;4.28;;;;;;;;;;7386053;19;20003;-72
2023/04/08 13:49:34;;;;;;;9.85;4.45;;;;;;;;;;7387745;19;20013;-72
2023/04/08 13:52:00;;;;;;;6.55;4.03;;;;;;;;;;7385917;19;20002;-72
2023/04/08 13:54:26;;;;;;;6.80;3.60;;;;;;;;;;7387509;19;20022;-72
2023/04/08 13:56:51;;;;;;;10.85;3.70;;;;;;;;;;7389289;19;20005;-72
2023/04/08 13:59:16;;;;;;;6.63;3.80;;;;;;;;;;7384905;19;20070;-71
2023/04/08 14:01:42;;;;;;;6.93;3.85;;;;;;;;;;7385650;19;20015;-72
2023/04/08 14:04:07;;;;;;;7.22;4.47;;;;;;;;;;7386051;19;20027;-72
2023/04/08 14:06:33;;;;;;;6.72;3.78;;;;;;;;;;7388593;19;20374;-72
2023/04/08 14:08:59;;;;;;;6.97;3.78;;;;;;;;;;7386312;19;20002;-72
2023/04/08 14:11:24;;;;;;;6.72;3.83;;;;;;;;;;7387420;19;20013;-72
2023/04/08 14:13:50;;;;;;;6.93;3.95;;;;;;;;;;7386884;19;20343;-73
2023/04/08 14:16:15;;;;;;;8.20;3.80;;;;;;;;;;7382901;19;20014;-72
2023/04/08 14:18:41;;;;;;;5.40;3.22;;;;;;;;;;7388064;19;20066;-72
2023/04/08 14:21:06;;;;;;;9.52;4.35;;;;;;;;;;7392211;19;20475;-72
2023/04/08 14:23:31;;;;;;;9.07;3.88;;;;;;;;;;7393635;19;20007;-71
2023/04/08 14:25:57;;;;;;;7.32;4.00;;;;;;;;;;7393106;19;20362;-71
2023/04/08 14:28:22;;;;;;;7.28;3.95;;;;;;;;;;7394953;19;20018;-71
2023/04/08 14:30:47;;;;;;;7.80;4.10;;;;;;;;;;7395612;19;20113;-70